Avalon, Pennsylvania
Current Conditions -  °F | °C
As of 1:51 PM on Friday 24 Oct 2014 (Local Time) from KPIT Reporting Station
Broken Clouds Broken Clouds  
Wind Chill: 57°   Ceiling: 25000
Heat Index: 57°   Visibility: 10mi
Dew Point: 39°   Wind: 6mph
Humidity: 51%   Direction: 330°NNW
Pressure: 30.04"   Gusts: NA
Location:  40.5069°N, 80.0715°W
Report Text: KPIT 241751Z 33005KT 10SM BKN250 14/04 A3004 RMK AO2 SLP183 T01390039 10139 20022 58019
Loading
Personal Weather Stations






























Interactive Weather Map
Tropical Storm Tracking
New forecast layout! Learn more

10-Day Weather Forecast

Advertisements
Track Severe Weather on mobile